sensor_id;sensor_type;location;lat;lon;timestamp;temperature;humidity
24402;DHT22;12539;48.808;11.292;2023-03-14T00:02:18;10.90;99.90
24402;DHT22;12539;48.808;11.292;2023-03-14T00:04:44;10.80;99.90
24402;DHT22;12539;48.808;11.292;2023-03-14T00:07:10;10.80;99.90
24402;DHT22;12539;48.808;11.292;2023-03-14T00:09:36;10.70;99.90
24402;DHT22;12539;48.808;11.292;2023-03-14T00:12:02;10.70;99.90
24402;DHT22;12539;48.808;11.292;2023-03-14T00:14:29;10.60;99.90
24402;DHT22;12539;48.808;11.292;2023-03-14T00:16:54;10.60;99.90
24402;DHT22;12539;48.808;11.292;2023-03-14T00:19:20;10.60;99.90
24402;DHT22;12539;48.808;11.292;2023-03-14T00:21:46;10.60;99.90
24402;DHT22;12539;48.808;11.292;2023-03-14T00:24:11;10.50;99.90
24402;DHT22;12539;48.808;11.292;2023-03-14T00:26:40;10.50;99.90
24402;DHT22;12539;48.808;11.292;2023-03-14T00:29:05;10.50;99.90
24402;DHT22;12539;48.808;11.292;2023-03-14T00:31:31;10.30;99.90
24402;DHT22;12539;48.808;11.292;2023-03-14T00:33:56;10.30;99.90
24402;DHT22;12539;48.808;11.292;2023-03-14T00:36:22;10.30;99.90
24402;DHT22;12539;48.808;11.292;2023-03-14T00:38:49;10.30;99.90
24402;DHT22;12539;48.808;11.292;2023-03-14T00:41:19;10.30;99.90
24402;DHT22;12539;48.808;11.292;2023-03-14T00:43:45;10.20;99.90
24402;DHT22;12539;48.808;11.292;2023-03-14T00:46:11;10.20;99.90
24402;DHT22;12539;48.808;11.292;2023-03-14T00:48:36;10.20;99.90
24402;DHT22;12539;48.808;11.292;2023-03-14T00:51:03;10.20;99.90
24402;DHT22;12539;48.808;11.292;2023-03-14T00:53:30;10.10;99.90
24402;DHT22;12539;48.808;11.292;2023-03-14T00:55:56;10.10;99.90
24402;DHT22;12539;48.808;11.292;2023-03-14T00:58:21;10.10;99.90
24402;DHT22;12539;48.808;11.292;2023-03-14T01:00:47;10.00;99.90
24402;DHT22;12539;48.808;11.292;2023-03-14T01:03:13;10.00;99.90
24402;DHT22;12539;48.808;11.292;2023-03-14T01:05:39;10.00;99.90
24402;DHT22;12539;48.808;11.292;2023-03-14T01:08:05;10.00;99.90
24402;DHT22;12539;48.808;11.292;2023-03-14T01:10:31;10.00;99.90
24402;DHT22;12539;48.808;11.292;2023-03-14T01:12:56;10.00;99.90
24402;DHT22;12539;48.808;11.292;2023-03-14T01:15:22;10.00;99.90
24402;DHT22;12539;48.808;11.292;2023-03-14T01:17:47;10.00;99.90
24402;DHT22;12539;48.808;11.292;2023-03-14T01:20:14;9.90;99.90
24402;DHT22;12539;48.808;11.292;2023-03-14T01:22:40;9.90;99.90
24402;DHT22;12539;48.808;11.292;2023-03-14T01:25:07;9.90;99.90
24402;DHT22;12539;48.808;11.292;2023-03-14T01:27:32;9.90;99.90
24402;DHT22;12539;48.808;11.292;2023-03-14T01:29:58;9.90;99.90
24402;DHT22;12539;48.808;11.292;2023-03-14T01:32:24;9.90;99.90
24402;DHT22;12539;48.808;11.292;2023-03-14T01:34:50;9.90;99.90
24402;DHT22;12539;48.808;11.292;2023-03-14T01:37:16;9.90;99.90
24402;DHT22;12539;48.808;11.292;2023-03-14T01:39:41;9.90;99.90
24402;DHT22;12539;48.808;11.292;2023-03-14T01:42:07;9.90;99.90
24402;DHT22;12539;48.808;11.292;2023-03-14T01:47:17;9.80;99.90
24402;DHT22;12539;48.808;11.292;2023-03-14T01:49:42;9.80;99.90
24402;DHT22;12539;48.808;11.292;2023-03-14T01:52:10;9.90;99.90
24402;DHT22;12539;48.808;11.292;2023-03-14T01:54:41;9.90;99.90
24402;DHT22;12539;48.808;11.292;2023-03-14T01:57:15;9.90;99.90
24402;DHT22;12539;48.808;11.292;2023-03-14T01:59:42;10.00;99.90
24402;DHT22;12539;48.808;11.292;2023-03-14T02:02:09;10.00;99.90
24402;DHT22;12539;48.808;11.292;2023-03-14T02:04:35;10.00;99.90
24402;DHT22;12539;48.808;11.292;2023-03-14T02:07:24;10.10;99.90
24402;DHT22;12539;48.808;11.292;2023-03-14T02:09:52;10.10;99.90
24402;DHT22;12539;48.808;11.292;2023-03-14T02:12:18;10.10;99.90
24402;DHT22;12539;48.808;11.292;2023-03-14T02:14:44;10.00;99.90
24402;DHT22;12539;48.808;11.292;2023-03-14T02:17:13;10.00;99.90
24402;DHT22;12539;48.808;11.292;2023-03-14T02:22:15;9.90;99.90
24402;DHT22;12539;48.808;11.292;2023-03-14T02:24:43;9.90;99.90
24402;DHT22;12539;48.808;11.292;2023-03-14T02:27:15;9.90;99.90
24402;DHT22;12539;48.808;11.292;2023-03-14T02:29:46;9.80;99.90
24402;DHT22;12539;48.808;11.292;2023-03-14T02:32:12;9.90;99.90
24402;DHT22;12539;48.808;11.292;2023-03-14T02:34:39;9.90;99.90
24402;DHT22;12539;48.808;11.292;2023-03-14T02:37:06;9.80;99.90
24402;DHT22;12539;48.808;11.292;2023-03-14T02:39:36;9.80;99.90
24402;DHT22;12539;48.808;11.292;2023-03-14T02:42:03;9.80;99.90
24402;DHT22;12539;48.808;11.292;2023-03-14T02:44:28;9.80;99.90
24402;DHT22;12539;48.808;11.292;2023-03-14T02:46:54;9.70;99.90
24402;DHT22;12539;48.808;11.292;2023-03-14T02:49:20;9.80;99.90
24402;DHT22;12539;48.808;11.292;2023-03-14T02:51:45;9.80;99.90
24402;DHT22;12539;48.808;11.292;2023-03-14T02:54:11;9.80;99.90
24402;DHT22;12539;48.808;11.292;2023-03-14T02:56:37;9.70;99.90
24402;DHT22;12539;48.808;11.292;2023-03-14T02:59:03;9.80;99.90
24402;DHT22;12539;48.808;11.292;2023-03-14T03:01:28;9.80;99.90
24402;DHT22;12539;48.808;11.292;2023-03-14T03:03:54;9.80;99.90
24402;DHT22;12539;48.808;11.292;2023-03-14T03:06:19;9.80;99.90
24402;DHT22;12539;48.808;11.292;2023-03-14T03:08:45;9.80;99.90
24402;DHT22;12539;48.808;11.292;2023-03-14T03:11:10;9.70;99.90
24402;DHT22;12539;48.808;11.292;2023-03-14T03:13:36;9.80;99.90
24402;DHT22;12539;48.808;11.292;2023-03-14T03:16:02;9.80;99.90
24402;DHT22;12539;48.808;11.292;2023-03-14T03:18:28;9.80;99.90
24402;DHT22;12539;48.808;11.292;2023-03-14T03:20:53;9.80;99.90
24402;DHT22;12539;48.808;11.292;2023-03-14T03:23:19;9.80;99.90
24402;DHT22;12539;48.808;11.292;2023-03-14T03:25:51;9.80;99.90
24402;DHT22;12539;48.808;11.292;2023-03-14T03:28:17;9.70;99.90
24402;DHT22;12539;48.808;11.292;2023-03-14T03:30:42;9.70;99.90
24402;DHT22;12539;48.808;11.292;2023-03-14T03:33:08;9.60;99.90
24402;DHT22;12539;48.808;11.292;2023-03-14T03:35:34;9.60;99.90
24402;DHT22;12539;48.808;11.292;2023-03-14T03:38:00;9.70;99.90
24402;DHT22;12539;48.808;11.292;2023-03-14T03:40:25;9.70;99.90
24402;DHT22;12539;48.808;11.292;2023-03-14T03:42:51;9.70;99.90
24402;DHT22;12539;48.808;11.292;2023-03-14T03:45:17;9.70;99.90
24402;DHT22;12539;48.808;11.292;2023-03-14T03:47:42;9.70;99.90
24402;DHT22;12539;48.808;11.292;2023-03-14T03:50:08;9.70;99.90
24402;DHT22;12539;48.808;11.292;2023-03-14T03:52:34;9.70;99.90
24402;DHT22;12539;48.808;11.292;2023-03-14T03:54:59;9.70;99.90
24402;DHT22;12539;48.808;11.292;2023-03-14T03:57:25;9.70;99.90
24402;DHT22;12539;48.808;11.292;2023-03-14T03:59:50;9.80;99.90
24402;DHT22;12539;48.808;11.292;2023-03-14T04:02:16;9.70;99.90
24402;DHT22;12539;48.808;11.292;2023-03-14T04:04:41;9.80;99.90
24402;DHT22;12539;48.808;11.292;2023-03-14T04:07:07;9.80;99.90
24402;DHT22;12539;48.808;11.292;2023-03-14T04:09:32;9.80;99.90
24402;DHT22;12539;48.808;11.292;2023-03-14T04:11:58;9.80;99.90
24402;DHT22;12539;48.808;11.292;2023-03-14T04:14:23;9.80;99.90
24402;DHT22;12539;48.808;11.292;2023-03-14T04:16:49;9.90;99.90
24402;DHT22;12539;48.808;11.292;2023-03-14T04:19:14;9.90;99.90
24402;DHT22;12539;48.808;11.292;2023-03-14T04:21:40;9.90;99.90
24402;DHT22;12539;48.808;11.292;2023-03-14T04:24:10;9.90;99.90
24402;DHT22;12539;48.808;11.292;2023-03-14T04:26:35;9.90;99.90
24402;DHT22;12539;48.808;11.292;2023-03-14T04:29:01;9.90;99.90
24402;DHT22;12539;48.808;11.292;2023-03-14T04:31:26;9.90;99.90
24402;DHT22;12539;48.808;11.292;2023-03-14T04:33:52;9.80;99.90
24402;DHT22;12539;48.808;11.292;2023-03-14T04:36:17;9.80;99.90
24402;DHT22;12539;48.808;11.292;2023-03-14T04:38:43;9.80;99.90
24402;DHT22;12539;48.808;11.292;2023-03-14T04:41:09;9.80;99.90
24402;DHT22;12539;48.808;11.292;2023-03-14T04:43:34;9.90;99.90
24402;DHT22;12539;48.808;11.292;2023-03-14T04:46:00;9.80;99.90
24402;DHT22;12539;48.808;11.292;2023-03-14T04:48:25;9.80;99.90
24402;DHT22;12539;48.808;11.292;2023-03-14T04:50:51;9.80;99.90
24402;DHT22;12539;48.808;11.292;2023-03-14T04:53:17;9.80;99.90
24402;DHT22;12539;48.808;11.292;2023-03-14T04:55:50;9.80;99.90
24402;DHT22;12539;48.808;11.292;2023-03-14T04:58:15;9.70;99.90
24402;DHT22;12539;48.808;11.292;2023-03-14T05:00:41;9.70;99.90
24402;DHT22;12539;48.808;11.292;2023-03-14T05:03:06;9.60;99.90
24402;DHT22;12539;48.808;11.292;2023-03-14T05:05:32;9.60;99.90
24402;DHT22;12539;48.808;11.292;2023-03-14T05:07:57;9.50;99.90
24402;DHT22;12539;48.808;11.292;2023-03-14T05:10:23;9.50;99.90
24402;DHT22;12539;48.808;11.292;2023-03-14T05:12:49;9.50;99.90
24402;DHT22;12539;48.808;11.292;2023-03-14T05:15:14;9.40;99.90
24402;DHT22;12539;48.808;11.292;2023-03-14T05:17:40;9.40;99.90
24402;DHT22;12539;48.808;11.292;2023-03-14T05:20:05;9.40;99.90
24402;DHT22;12539;48.808;11.292;2023-03-14T05:22:38;9.40;99.90
24402;DHT22;12539;48.808;11.292;2023-03-14T05:25:04;9.40;99.90
24402;DHT22;12539;48.808;11.292;2023-03-14T05:27:29;9.40;99.90
24402;DHT22;12539;48.808;11.292;2023-03-14T05:29:55;9.40;99.90
24402;DHT22;12539;48.808;11.292;2023-03-14T05:32:20;9.30;99.90
24402;DHT22;12539;48.808;11.292;2023-03-14T05:34:46;9.30;99.90
24402;DHT22;12539;48.808;11.292;2023-03-14T05:37:11;9.30;99.90
24402;DHT22;12539;48.808;11.292;2023-03-14T05:39:37;9.20;99.90
24402;DHT22;12539;48.808;11.292;2023-03-14T05:42:02;9.20;99.90
24402;DHT22;12539;48.808;11.292;2023-03-14T05:44:28;9.20;99.90
24402;DHT22;12539;48.808;11.292;2023-03-14T05:46:53;9.10;99.90
24402;DHT22;12539;48.808;11.292;2023-03-14T05:49:19;9.10;99.90
24402;DHT22;12539;48.808;11.292;2023-03-14T05:51:44;9.10;99.90
24402;DHT22;12539;48.808;11.292;2023-03-14T05:54:10;9.10;99.90
24402;DHT22;12539;48.808;11.292;2023-03-14T05:56:36;9.10;99.90
24402;DHT22;12539;48.808;11.292;2023-03-14T05:59:01;9.10;99.90
24402;DHT22;12539;48.808;11.292;2023-03-14T06:01:28;9.10;99.90
24402;DHT22;12539;48.808;11.292;2023-03-14T06:03:54;9.10;99.90
24402;DHT22;12539;48.808;11.292;2023-03-14T06:06:20;9.10;99.90
24402;DHT22;12539;48.808;11.292;2023-03-14T06:08:45;9.20;99.90
24402;DHT22;12539;48.808;11.292;2023-03-14T06:11:11;9.20;99.90
24402;DHT22;12539;48.808;11.292;2023-03-14T06:13:36;9.30;99.90
24402;DHT22;12539;48.808;11.292;2023-03-14T06:16:02;9.30;99.90
24402;DHT22;12539;48.808;11.292;2023-03-14T06:18:27;9.40;99.90
24402;DHT22;12539;48.808;11.292;2023-03-14T06:20:53;9.40;99.90
24402;DHT22;12539;48.808;11.292;2023-03-14T06:23:19;9.50;99.90
24402;DHT22;12539;48.808;11.292;2023-03-14T06:25:45;9.50;99.90
24402;DHT22;12539;48.808;11.292;2023-03-14T06:30:58;9.50;99.90
24402;DHT22;12539;48.808;11.292;2023-03-14T06:33:24;9.50;99.90
24402;DHT22;12539;48.808;11.292;2023-03-14T06:35:49;9.60;99.90
24402;DHT22;12539;48.808;11.292;2023-03-14T06:38:15;9.60;99.90
24402;DHT22;12539;48.808;11.292;2023-03-14T06:40:40;9.70;99.90
24402;DHT22;12539;48.808;11.292;2023-03-14T06:43:06;9.70;99.90
24402;DHT22;12539;48.808;11.292;2023-03-14T06:45:32;9.80;99.90
24402;DHT22;12539;48.808;11.292;2023-03-14T06:47:57;9.90;99.90
24402;DHT22;12539;48.808;11.292;2023-03-14T06:50:23;9.90;99.90
24402;DHT22;12539;48.808;11.292;2023-03-14T06:52:48;9.90;99.90
24402;DHT22;12539;48.808;11.292;2023-03-14T06:55:15;9.80;99.90
24402;DHT22;12539;48.808;11.292;2023-03-14T06:57:40;9.80;99.90
24402;DHT22;12539;48.808;11.292;2023-03-14T07:00:07;9.90;99.90
24402;DHT22;12539;48.808;11.292;2023-03-14T07:02:32;10.00;99.90
24402;DHT22;12539;48.808;11.292;2023-03-14T07:04:58;10.20;99.90
24402;DHT22;12539;48.808;11.292;2023-03-14T07:07:24;10.30;99.90
24402;DHT22;12539;48.808;11.292;2023-03-14T07:09:49;10.40;99.90
24402;DHT22;12539;48.808;11.292;2023-03-14T07:12:15;10.40;99.90
24402;DHT22;12539;48.808;11.292;2023-03-14T07:14:40;10.50;99.90
24402;DHT22;12539;48.808;11.292;2023-03-14T07:17:06;10.50;99.90
24402;DHT22;12539;48.808;11.292;2023-03-14T07:19:31;10.40;99.90
24402;DHT22;12539;48.808;11.292;2023-03-14T07:21:57;10.40;99.90
24402;DHT22;12539;48.808;11.292;2023-03-14T07:24:22;10.40;99.90
24402;DHT22;12539;48.808;11.292;2023-03-14T07:26:48;10.40;99.90
24402;DHT22;12539;48.808;11.292;2023-03-14T07:29:14;10.30;99.90
24402;DHT22;12539;48.808;11.292;2023-03-14T07:31:39;10.30;99.90
24402;DHT22;12539;48.808;11.292;2023-03-14T07:34:05;10.30;99.90
24402;DHT22;12539;48.808;11.292;2023-03-14T07:36:30;10.40;99.90
24402;DHT22;12539;48.808;11.292;2023-03-14T07:38:56;10.40;99.90
24402;DHT22;12539;48.808;11.292;2023-03-14T07:41:22;10.50;99.90
24402;DHT22;12539;48.808;11.292;2023-03-14T07:43:48;10.50;99.90
24402;DHT22;12539;48.808;11.292;2023-03-14T07:46:14;10.60;99.90
24402;DHT22;12539;48.808;11.292;2023-03-14T07:48:40;10.60;99.90
24402;DHT22;12539;48.808;11.292;2023-03-14T07:51:06;10.60;99.90
24402;DHT22;12539;48.808;11.292;2023-03-14T07:53:31;10.70;99.90
24402;DHT22;12539;48.808;11.292;2023-03-14T07:55:57;10.70;99.90
24402;DHT22;12539;48.808;11.292;2023-03-14T07:58:22;10.70;99.90
24402;DHT22;12539;48.808;11.292;2023-03-14T08:00:48;10.70;99.90
24402;DHT22;12539;48.808;11.292;2023-03-14T08:03:14;10.70;99.90
24402;DHT22;12539;48.808;11.292;2023-03-14T08:05:39;10.70;99.90
24402;DHT22;12539;48.808;11.292;2023-03-14T08:08:05;10.70;99.90
24402;DHT22;12539;48.808;11.292;2023-03-14T08:10:31;10.70;99.90
24402;DHT22;12539;48.808;11.292;2023-03-14T08:12:57;10.70;99.90
24402;DHT22;12539;48.808;11.292;2023-03-14T08:15:23;10.80;99.90
24402;DHT22;12539;48.808;11.292;2023-03-14T08:17:50;10.80;99.90
24402;DHT22;12539;48.808;11.292;2023-03-14T08:20:20;10.90;99.90
24402;DHT22;12539;48.808;11.292;2023-03-14T08:22:46;10.90;99.90
24402;DHT22;12539;48.808;11.292;2023-03-14T08:25:11;10.90;99.90
24402;DHT22;12539;48.808;11.292;2023-03-14T08:27:37;10.90;99.90
24402;DHT22;12539;48.808;11.292;2023-03-14T08:30:10;10.90;99.90
24402;DHT22;12539;48.808;11.292;2023-03-14T08:32:36;10.90;99.90
24402;DHT22;12539;48.808;11.292;2023-03-14T08:35:03;11.00;99.90
24402;DHT22;12539;48.808;11.292;2023-03-14T08:37:30;11.00;99.90
24402;DHT22;12539;48.808;11.292;2023-03-14T08:39:55;11.20;99.90
24402;DHT22;12539;48.808;11.292;2023-03-14T08:42:21;11.30;99.90
24402;DHT22;12539;48.808;11.292;2023-03-14T08:44:46;11.40;99.90
24402;DHT22;12539;48.808;11.292;2023-03-14T08:47:12;11.50;99.90
24402;DHT22;12539;48.808;11.292;2023-03-14T08:49:38;11.70;99.90
24402;DHT22;12539;48.808;11.292;2023-03-14T08:52:04;11.70;99.90
24402;DHT22;12539;48.808;11.292;2023-03-14T08:54:30;11.80;99.90
24402;DHT22;12539;48.808;11.292;2023-03-14T08:56:55;11.80;99.90
24402;DHT22;12539;48.808;11.292;2023-03-14T08:59:21;11.80;99.90
24402;DHT22;12539;48.808;11.292;2023-03-14T09:01:46;11.90;99.90
24402;DHT22;12539;48.808;11.292;2023-03-14T09:04:12;12.00;99.90
24402;DHT22;12539;48.808;11.292;2023-03-14T09:06:38;12.10;99.90
24402;DHT22;12539;48.808;11.292;2023-03-14T09:09:04;12.10;99.90
24402;DHT22;12539;48.808;11.292;2023-03-14T09:11:30;12.30;99.90
24402;DHT22;12539;48.808;11.292;2023-03-14T09:13:56;12.30;99.90
24402;DHT22;12539;48.808;11.292;2023-03-14T09:16:22;12.40;99.90
24402;DHT22;12539;48.808;11.292;2023-03-14T09:18:47;12.50;99.90
24402;DHT22;12539;48.808;11.292;2023-03-14T09:21:13;12.50;99.90
24402;DHT22;12539;48.808;11.292;2023-03-14T09:23:39;12.60;99.90
24402;DHT22;12539;48.808;11.292;2023-03-14T09:26:05;12.60;99.90
24402;DHT22;12539;48.808;11.292;2023-03-14T09:28:31;12.60;99.90
24402;DHT22;12539;48.808;11.292;2023-03-14T09:30:57;12.70;99.90
24402;DHT22;12539;48.808;11.292;2023-03-14T09:33:23;12.70;99.90
24402;DHT22;12539;48.808;11.292;2023-03-14T09:35:49;12.70;99.90
24402;DHT22;12539;48.808;11.292;2023-03-14T09:38:15;12.70;99.90
24402;DHT22;12539;48.808;11.292;2023-03-14T09:40:41;12.60;99.90
24402;DHT22;12539;48.808;11.292;2023-03-14T09:43:09;12.60;99.90
24402;DHT22;12539;48.808;11.292;2023-03-14T09:45:36;12.60;99.90
24402;DHT22;12539;48.808;11.292;2023-03-14T09:48:04;12.70;99.90
24402;DHT22;12539;48.808;11.292;2023-03-14T09:50:37;12.80;99.90
24402;DHT22;12539;48.808;11.292;2023-03-14T09:53:09;12.80;99.90
24402;DHT22;12539;48.808;11.292;2023-03-14T09:55:36;12.80;99.90
24402;DHT22;12539;48.808;11.292;2023-03-14T09:58:03;12.90;99.90
24402;DHT22;12539;48.808;11.292;2023-03-14T10:00:30;12.90;99.90
24402;DHT22;12539;48.808;11.292;2023-03-14T10:03:09;12.90;99.90
24402;DHT22;12539;48.808;11.292;2023-03-14T10:05:40;12.90;99.90
24402;DHT22;12539;48.808;11.292;2023-03-14T10:08:08;13.00;99.90
24402;DHT22;12539;48.808;11.292;2023-03-14T10:10:35;13.10;99.90
24402;DHT22;12539;48.808;11.292;2023-03-14T10:13:14;13.10;99.90
24402;DHT22;12539;48.808;11.292;2023-03-14T10:15:40;13.20;99.90
24402;DHT22;12539;48.808;11.292;2023-03-14T10:18:10;13.30;99.90
24402;DHT22;12539;48.808;11.292;2023-03-14T10:20:41;13.40;99.90
24402;DHT22;12539;48.808;11.292;2023-03-14T10:25:46;13.60;99.90
24402;DHT22;12539;48.808;11.292;2023-03-14T10:28:24;13.60;99.90
24402;DHT22;12539;48.808;11.292;2023-03-14T10:30:50;13.60;99.90
24402;DHT22;12539;48.808;11.292;2023-03-14T10:35:41;13.50;99.90
24402;DHT22;12539;48.808;11.292;2023-03-14T10:38:10;13.50;99.90
24402;DHT22;12539;48.808;11.292;2023-03-14T10:40:41;13.60;99.90
24402;DHT22;12539;48.808;11.292;2023-03-14T10:43:13;13.70;99.90
24402;DHT22;12539;48.808;11.292;2023-03-14T10:45:41;13.90;99.90
24402;DHT22;12539;48.808;11.292;2023-03-14T10:50:56;14.10;99.90
24402;DHT22;12539;48.808;11.292;2023-03-14T10:53:22;14.10;99.90
24402;DHT22;12539;48.808;11.292;2023-03-14T10:55:48;14.20;99.90
24402;DHT22;12539;48.808;11.292;2023-03-14T10:58:27;14.20;99.90
24402;DHT22;12539;48.808;11.292;2023-03-14T11:01:06;14.30;99.90
24402;DHT22;12539;48.808;11.292;2023-03-14T11:03:35;14.40;99.90
24402;DHT22;12539;48.808;11.292;2023-03-14T11:06:05;14.50;99.80
24402;DHT22;12539;48.808;11.292;2023-03-14T11:09:18;14.70;99.90
24402;DHT22;12539;48.808;11.292;2023-03-14T11:11:22;14.90;99.40
24402;DHT22;12539;48.808;11.292;2023-03-14T11:16:16;15.10;98.70
24402;DHT22;12539;48.808;11.292;2023-03-14T11:18:53;15.20;97.60
24402;DHT22;12539;48.808;11.292;2023-03-14T11:21:32;15.20;98.90
24402;DHT22;12539;48.808;11.292;2023-03-14T11:26:51;15.10;98.40
24402;DHT22;12539;48.808;11.292;2023-03-14T11:31:44;15.00;96.70
24402;DHT22;12539;48.808;11.292;2023-03-14T11:34:15;14.80;98.50
24402;DHT22;12539;48.808;11.292;2023-03-14T11:36:41;14.80;96.80
24402;DHT22;12539;48.808;11.292;2023-03-14T11:39:13;14.80;98.20
24402;DHT22;12539;48.808;11.292;2023-03-14T11:41:40;14.90;96.20
24402;DHT22;12539;48.808;11.292;2023-03-14T11:44:25;14.90;96.60
24402;DHT22;12539;48.808;11.292;2023-03-14T11:49:31;15.20;96.00
24402;DHT22;12539;48.808;11.292;2023-03-14T11:52:05;15.30;94.00
24402;DHT22;12539;48.808;11.292;2023-03-14T11:57:03;15.50;92.40
24402;DHT22;12539;48.808;11.292;2023-03-14T11:59:38;15.50;93.70
24402;DHT22;12539;48.808;11.292;2023-03-14T12:07:43;15.60;92.60
24402;DHT22;12539;48.808;11.292;2023-03-14T12:10:10;15.70;91.20
24402;DHT22;12539;48.808;11.292;2023-03-14T12:12:35;15.70;93.90
24402;DHT22;12539;48.808;11.292;2023-03-14T12:15:02;15.60;92.00
24402;DHT22;12539;48.808;11.292;2023-03-14T12:17:38;15.40;92.90
24402;DHT22;12539;48.808;11.292;2023-03-14T12:20:25;15.10;93.20
24402;DHT22;12539;48.808;11.292;2023-03-14T12:22:50;15.00;92.20
24402;DHT22;12539;48.808;11.292;2023-03-14T12:25:20;14.90;93.80
24402;DHT22;12539;48.808;11.292;2023-03-14T12:27:48;15.00;92.90
24402;DHT22;12539;48.808;11.292;2023-03-14T12:30:35;15.00;93.00
24402;DHT22;12539;48.808;11.292;2023-03-14T12:35:35;15.30;92.30
24402;DHT22;12539;48.808;11.292;2023-03-14T12:38:02;15.40;90.50
24402;DHT22;12539;48.808;11.292;2023-03-14T12:40:32;15.50;90.50
24402;DHT22;12539;48.808;11.292;2023-03-14T12:42:58;15.50;90.60
24402;DHT22;12539;48.808;11.292;2023-03-14T12:45:26;15.50;91.10
24402;DHT22;12539;48.808;11.292;2023-03-14T12:50:30;15.50;91.80
24402;DHT22;12539;48.808;11.292;2023-03-14T12:53:02;15.40;91.10
24402;DHT22;12539;48.808;11.292;2023-03-14T12:55:36;15.20;90.50
24402;DHT22;12539;48.808;11.292;2023-03-14T12:58:25;15.00;90.70
24402;DHT22;12539;48.808;11.292;2023-03-14T13:01:02;14.80;92.00
24402;DHT22;12539;48.808;11.292;2023-03-14T13:03:43;14.60;93.30
24402;DHT22;12539;48.808;11.292;2023-03-14T13:06:10;14.50;93.40
24402;DHT22;12539;48.808;11.292;2023-03-14T13:08:43;14.30;93.70
24402;DHT22;12539;48.808;11.292;2023-03-14T13:11:19;14.00;95.30
24402;DHT22;12539;48.808;11.292;2023-03-14T13:13:49;13.80;96.40
24402;DHT22;12539;48.808;11.292;2023-03-14T13:16:20;13.60;96.80
24402;DHT22;12539;48.808;11.292;2023-03-14T13:18:46;13.50;97.30
24402;DHT22;12539;48.808;11.292;2023-03-14T13:23:38;13.40;99.10
24402;DHT22;12539;48.808;11.292;2023-03-14T13:26:05;13.20;99.60
24402;DHT22;12539;48.808;11.292;2023-03-14T13:28:35;13.20;99.90
24402;DHT22;12539;48.808;11.292;2023-03-14T13:31:01;13.20;99.90
24402;DHT22;12539;48.808;11.292;2023-03-14T13:33:27;13.10;99.90
24402;DHT22;12539;48.808;11.292;2023-03-14T13:35:57;12.90;99.90
24402;DHT22;12539;48.808;11.292;2023-03-14T13:38:27;12.70;99.90
24402;DHT22;12539;48.808;11.292;2023-03-14T13:40:56;12.50;99.90
24402;DHT22;12539;48.808;11.292;2023-03-14T13:45:51;12.30;99.90
24402;DHT22;12539;48.808;11.292;2023-03-14T13:48:18;12.20;99.90
24402;DHT22;12539;48.808;11.292;2023-03-14T13:50:54;12.20;99.90
24402;DHT22;12539;48.808;11.292;2023-03-14T13:53:20;12.20;99.90
24402;DHT22;12539;48.808;11.292;2023-03-14T13:55:46;12.10;99.90
24402;DHT22;12539;48.808;11.292;2023-03-14T13:58:25;12.10;99.90
24402;DHT22;12539;48.808;11.292;2023-03-14T14:01:05;12.20;99.90
24402;DHT22;12539;48.808;11.292;2023-03-14T14:03:31;12.20;99.90
24402;DHT22;12539;48.808;11.292;2023-03-14T14:05:57;12.20;99.90
24402;DHT22;12539;48.808;11.292;2023-03-14T14:08:24;12.20;99.90
24402;DHT22;12539;48.808;11.292;2023-03-14T14:10:50;12.20;99.90
24402;DHT22;12539;48.808;11.292;2023-03-14T14:13:18;12.20;99.90
24402;DHT22;12539;48.808;11.292;2023-03-14T14:15:46;12.10;99.90
24402;DHT22;12539;48.808;11.292;2023-03-14T14:18:13;12.00;99.90
24402;DHT22;12539;48.808;11.292;2023-03-14T14:20:40;11.90;99.90
24402;DHT22;12539;48.808;11.292;2023-03-14T14:23:09;11.90;99.90
24402;DHT22;12539;48.808;11.292;2023-03-14T14:25:35;11.80;99.90
24402;DHT22;12539;48.808;11.292;2023-03-14T14:28:14;11.80;99.90
24402;DHT22;12539;48.808;11.292;2023-03-14T14:30:39;11.80;99.90
24402;DHT22;12539;48.808;11.292;2023-03-14T14:33:16;11.70;99.90
24402;DHT22;12539;48.808;11.292;2023-03-14T14:35:42;11.70;99.90
24402;DHT22;12539;48.808;11.292;2023-03-14T14:38:10;11.70;99.90
24402;DHT22;12539;48.808;11.292;2023-03-14T14:40:43;11.80;99.90
24402;DHT22;12539;48.808;11.292;2023-03-14T14:43:10;11.80;99.90
24402;DHT22;12539;48.808;11.292;2023-03-14T14:45:42;11.80;99.90
24402;DHT22;12539;48.808;11.292;2023-03-14T14:48:21;11.80;99.90
24402;DHT22;12539;48.808;11.292;2023-03-14T14:56:17;11.70;99.90
24402;DHT22;12539;48.808;11.292;2023-03-14T14:58:46;11.70;99.90
24402;DHT22;12539;48.808;11.292;2023-03-14T15:01:24;11.60;99.90
24402;DHT22;12539;48.808;11.292;2023-03-14T15:03:55;11.70;99.90
24402;DHT22;12539;48.808;11.292;2023-03-14T15:06:21;11.60;99.90
24402;DHT22;12539;48.808;11.292;2023-03-14T15:08:48;11.60;98.70
24402;DHT22;12539;48.808;11.292;2023-03-14T15:11:21;11.50;97.30
24402;DHT22;12539;48.808;11.292;2023-03-14T15:13:50;11.40;95.80
24402;DHT22;12539;48.808;11.292;2023-03-14T15:16:17;11.20;95.60
24402;DHT22;12539;48.808;11.292;2023-03-14T15:18:43;11.10;95.80
24402;DHT22;12539;48.808;11.292;2023-03-14T15:21:10;11.00;95.40
24402;DHT22;12539;48.808;11.292;2023-03-14T15:23:35;10.90;96.10
24402;DHT22;12539;48.808;11.292;2023-03-14T15:26:01;10.90;95.50
24402;DHT22;12539;48.808;11.292;2023-03-14T15:28:27;10.90;96.70
24402;DHT22;12539;48.808;11.292;2023-03-14T15:30:54;10.90;96.90
24402;DHT22;12539;48.808;11.292;2023-03-14T15:33:20;10.80;95.70
24402;DHT22;12539;48.808;11.292;2023-03-14T15:35:46;10.90;95.40
24402;DHT22;12539;48.808;11.292;2023-03-14T15:38:13;10.90;96.10
24402;DHT22;12539;48.808;11.292;2023-03-14T15:40:39;11.00;93.50
24402;DHT22;12539;48.808;11.292;2023-03-14T15:43:07;11.10;93.00
24402;DHT22;12539;48.808;11.292;2023-03-14T15:45:33;11.00;93.00
24402;DHT22;12539;48.808;11.292;2023-03-14T15:47:58;11.10;92.10
24402;DHT22;12539;48.808;11.292;2023-03-14T15:50:24;11.00;93.30
24402;DHT22;12539;48.808;11.292;2023-03-14T15:52:50;11.00;92.20
24402;DHT22;12539;48.808;11.292;2023-03-14T15:55:16;10.90;91.70
24402;DHT22;12539;48.808;11.292;2023-03-14T15:57:45;10.90;88.40
24402;DHT22;12539;48.808;11.292;2023-03-14T16:00:11;10.80;91.10
24402;DHT22;12539;48.808;11.292;2023-03-14T16:02:40;10.70;85.10
24402;DHT22;12539;48.808;11.292;2023-03-14T16:05:09;10.50;85.20
24402;DHT22;12539;48.808;11.292;2023-03-14T16:07:35;10.40;84.60
24402;DHT22;12539;48.808;11.292;2023-03-14T16:10:01;10.30;86.90
24402;DHT22;12539;48.808;11.292;2023-03-14T16:12:27;10.20;84.10